Time;durP1;ratioP1;P1;durP2;ratioP2;P2;SDS_P1;SDS_P2;PMS_P1;PMS_P2;Temp;Humidity;BMP_temperature;BMP_pressure;BME280_temperature;BME280_humidity;BME280_pressure;Samples;Min_cycle;Max_cycle;Signal;HPM_P1;HPM_P2
2023/05/06 00:01:57;;;;;;;29.42;13.98;;;;;;;11.60;100.00;101361.97;5005101;28;20092;-71
2023/05/06 00:04:23;;;;;;;31.30;15.60;;;;;;;11.57;100.00;101364.88;5007078;28;20030;-71
2023/05/06 00:06:48;;;;;;;31.95;15.55;;;;;;;11.57;100.00;101366.66;4989214;28;20033;-71
2023/05/06 00:09:14;;;;;;;29.92;16.00;;;;;;;11.56;100.00;101365.00;5000023;28;20665;-71
2023/05/06 00:11:40;;;;;;;33.13;15.95;;;;;;;11.58;100.00;101363.06;5005507;28;20495;-70
2023/05/06 00:14:05;;;;;;;28.00;15.40;;;;;;;11.58;100.00;101368.25;5000795;28;20129;-70
2023/05/06 00:16:31;;;;;;;28.02;13.98;;;;;;;11.56;100.00;101368.41;5004970;28;20388;-70
2023/05/06 00:18:57;;;;;;;23.77;12.95;;;;;;;11.57;100.00;101369.25;5006650;28;20045;-70
2023/05/06 00:21:22;;;;;;;29.70;13.98;;;;;;;11.56;100.00;101368.41;5005913;28;20045;-70
2023/05/06 00:23:48;;;;;;;28.90;15.90;;;;;;;11.55;100.00;101366.00;5003505;28;20038;-70
2023/05/06 00:26:14;;;;;;;33.15;16.10;;;;;;;11.54;100.00;101356.56;5003750;28;20037;-70
2023/05/06 00:28:39;;;;;;;28.67;16.05;;;;;;;11.51;100.00;101360.28;5001764;28;20397;-70
2023/05/06 00:31:05;;;;;;;26.75;14.55;;;;;;;11.45;100.00;101358.25;4998775;28;20049;-69
2023/05/06 00:33:30;;;;;;;25.85;13.57;;;;;;;11.39;100.00;101357.06;4989783;28;20038;-70
2023/05/06 00:35:56;;;;;;;24.55;13.38;;;;;;;11.34;100.00;101351.50;5001808;28;20329;-70
2023/05/06 00:38:21;;;;;;;22.83;12.45;;;;;;;11.28;100.00;101354.66;4999698;28;20128;-70
2023/05/06 00:40:47;;;;;;;24.27;12.85;;;;;;;11.20;100.00;101347.63;5004773;28;20684;-70
2023/05/06 00:43:13;;;;;;;26.08;13.90;;;;;;;11.16;100.00;101348.06;5006627;28;20076;-70
2023/05/06 00:45:38;;;;;;;25.25;12.68;;;;;;;11.11;100.00;101348.50;4992287;28;20026;-70
2023/05/06 00:48:06;;;;;;;22.50;12.80;;;;;;;11.04;100.00;101348.28;5002698;28;20029;-70
2023/05/06 00:50:33;;;;;;;24.50;12.40;;;;;;;11.02;100.00;101344.16;5003825;28;20088;-70
2023/05/06 00:53:01;;;;;;;23.48;12.38;;;;;;;11.01;100.00;101353.75;4986258;28;20029;-70
2023/05/06 00:55:26;;;;;;;22.70;12.70;;;;;;;11.03;100.00;101351.00;5004684;28;20037;-70
2023/05/06 00:57:53;;;;;;;24.60;12.55;;;;;;;11.03;100.00;101346.63;5000638;28;20113;-70
2023/05/06 01:00:19;;;;;;;23.30;12.18;;;;;;;11.02;100.00;101347.59;5009292;28;20400;-70
2023/05/06 01:02:46;;;;;;;27.35;14.30;;;;;;;11.00;100.00;101340.91;5004256;28;20038;-70
2023/05/06 01:05:12;;;;;;;26.80;13.27;;;;;;;10.99;100.00;101347.06;5001950;28;20046;-70
2023/05/06 01:07:49;;;;;;;25.73;13.32;;;;;;;10.98;100.00;101348.88;5002451;28;20046;-70
2023/05/06 01:10:34;;;;;;;27.98;13.32;;;;;;;10.97;100.00;101343.81;5006242;28;20121;-70
2023/05/06 01:13:33;;;;;;;26.92;14.45;;;;;;;10.94;100.00;101346.69;5004021;28;20038;-70
2023/05/06 01:16:03;;;;;;;23.67;11.93;;;;;;;10.87;100.00;101341.28;5006528;28;20049;-70
2023/05/06 01:18:32;;;;;;;20.92;11.07;;;;;;;10.85;100.00;101345.75;5007610;28;20046;-71
2023/05/06 01:20:58;;;;;;;21.38;11.73;;;;;;;10.84;100.00;101344.16;4992453;28;20041;-70
2023/05/06 01:23:25;;;;;;;20.40;11.32;;;;;;;10.81;100.00;101350.44;5006411;28;20041;-70
2023/05/06 01:25:51;;;;;;;23.10;11.70;;;;;;;10.78;100.00;101355.09;5008236;28;20026;-70
2023/05/06 01:28:16;;;;;;;23.65;12.23;;;;;;;10.76;100.00;101349.25;4984136;28;20042;-70
2023/05/06 01:30:51;;;;;;;23.45;12.82;;;;;;;10.73;100.00;101349.53;4986288;28;20040;-70
2023/05/06 01:33:16;;;;;;;27.45;13.95;;;;;;;10.66;100.00;101349.25;5001173;28;20044;-70
2023/05/06 01:35:52;;;;;;;25.27;12.90;;;;;;;10.62;100.00;101348.72;4988027;28;20063;-70
2023/05/06 01:38:56;;;;;;;25.77;13.30;;;;;;;10.59;100.00;101337.84;5003017;28;20053;-70
2023/05/06 01:41:23;;;;;;;27.95;13.70;;;;;;;10.58;100.00;101344.00;4921334;29;20091;-70
2023/05/06 01:43:52;;;;;;;27.33;13.55;;;;;;;10.55;100.00;101345.09;4987678;28;20069;-70
2023/05/06 01:46:19;;;;;;;27.65;13.43;;;;;;;10.50;100.00;101335.13;5000115;28;20033;-70
2023/05/06 01:48:46;;;;;;;24.58;13.30;;;;;;;10.47;100.00;101340.63;4983757;28;20041;-70
2023/05/06 01:51:11;;;;;;;29.20;13.73;;;;;;;10.45;100.00;101341.72;4999619;28;20049;-70
2023/05/06 01:53:37;;;;;;;26.92;13.75;;;;;;;10.42;100.00;101344.59;4988509;28;20120;-70
2023/05/06 01:56:03;;;;;;;26.42;13.48;;;;;;;10.36;100.00;101343.41;5002224;28;20121;-70
2023/05/06 01:58:29;;;;;;;25.40;13.48;;;;;;;10.32;100.00;101345.44;5000333;28;20042;-70
2023/05/06 02:00:54;;;;;;;27.77;12.40;;;;;;;10.31;100.00;101345.59;5000789;28;20038;-70
2023/05/06 02:03:20;;;;;;;23.83;12.40;;;;;;;10.27;100.00;101344.19;5000915;28;20038;-70
2023/05/06 02:05:45;;;;;;;29.17;13.43;;;;;;;10.22;100.00;101339.41;4985926;28;20453;-70
2023/05/06 02:08:11;;;;;;;26.33;13.52;;;;;;;10.15;100.00;101346.13;5004696;28;20496;-70
2023/05/06 02:10:36;;;;;;;23.48;11.77;;;;;;;10.07;100.00;101344.22;5004125;28;20025;-70
2023/05/06 02:13:06;;;;;;;24.55;12.93;;;;;;;10.01;100.00;101342.19;5001767;28;20042;-70
2023/05/06 02:15:32;;;;;;;26.15;13.90;;;;;;;9.95;100.00;101340.16;4989443;28;20053;-70
2023/05/06 02:17:58;;;;;;;28.17;12.88;;;;;;;9.90;100.00;101344.94;5006062;28;20021;-70
2023/05/06 02:20:25;;;;;;;24.67;12.13;;;;;;;9.85;100.00;101353.13;5002674;28;20040;-70
2023/05/06 02:22:50;;;;;;;24.95;13.07;;;;;;;9.81;100.00;101353.53;4988827;28;20034;-70
2023/05/06 02:25:16;;;;;;;24.15;12.02;;;;;;;9.79;100.00;101360.63;5004838;28;20025;-70
2023/05/06 02:27:43;;;;;;;24.13;11.20;;;;;;;9.75;100.00;101357.50;5009577;28;20030;-70
2023/05/06 02:30:10;;;;;;;25.17;13.60;;;;;;;9.70;100.00;101350.16;5006869;28;20068;-70
2023/05/06 02:32:36;;;;;;;24.75;13.57;;;;;;;9.63;100.00;101354.22;5009632;28;20112;-70
2023/05/06 02:35:02;;;;;;;21.50;11.88;;;;;;;9.61;100.00;101357.91;5000227;28;20100;-70
2023/05/06 02:37:27;;;;;;;26.08;12.35;;;;;;;9.56;100.00;101355.72;5004077;28;20080;-70
2023/05/06 02:39:53;;;;;;;22.90;12.07;;;;;;;9.51;100.00;101350.97;5003254;28;20164;-70
2023/05/06 02:42:19;;;;;;;23.40;12.00;;;;;;;9.50;100.00;101354.50;5008496;28;20033;-70
2023/05/06 02:44:45;;;;;;;22.33;11.70;;;;;;;9.49;100.00;101350.28;5005982;28;20046;-70
2023/05/06 02:47:11;;;;;;;26.02;13.10;;;;;;;9.45;100.00;101348.88;4987808;28;20104;-70
2023/05/06 02:49:36;;;;;;;25.17;12.82;;;;;;;9.39;100.00;101341.66;4986923;28;20049;-70
2023/05/06 02:52:02;;;;;;;24.77;12.98;;;;;;;9.34;100.00;101339.50;5003815;28;20110;-70
2023/05/06 02:54:27;;;;;;;24.20;11.50;;;;;;;9.32;100.00;101343.16;5002875;28;20045;-70
2023/05/06 02:56:53;;;;;;;20.52;11.65;;;;;;;9.30;100.00;101348.47;5006478;28;20037;-70
2023/05/06 02:59:18;;;;;;;23.83;11.30;;;;;;;9.29;100.00;101344.25;4984958;28;20404;-70
2023/05/06 03:01:44;;;;;;;18.33;10.45;;;;;;;9.25;100.00;101345.47;4996022;28;20041;-70
2023/05/06 03:04:09;;;;;;;16.70;9.77;;;;;;;9.21;100.00;101353.63;4986431;28;20563;-70
2023/05/06 03:06:34;;;;;;;18.63;10.25;;;;;;;9.16;100.00;101351.44;5004971;28;20081;-70
2023/05/06 03:09:00;;;;;;;15.25;9.27;;;;;;;9.13;100.00;101362.06;4990440;28;20041;-70
2023/05/06 03:11:25;;;;;;;18.08;10.18;;;;;;;9.11;100.00;101349.25;5005169;28;20100;-70
2023/05/06 03:13:51;;;;;;;19.67;10.80;;;;;;;9.09;100.00;101352.94;4987752;28;20396;-70
2023/05/06 03:16:17;;;;;;;21.58;11.30;;;;;;;9.06;100.00;101354.03;4991464;28;20100;-70
2023/05/06 03:18:47;;;;;;;20.63;10.15;;;;;;;9.05;100.00;101361.91;4988381;28;20042;-70
2023/05/06 03:21:13;;;;;;;18.63;10.43;;;;;;;9.04;100.00;101352.50;5004960;28;20045;-70
2023/05/06 03:23:40;;;;;;;20.13;10.65;;;;;;;9.04;100.00;101349.91;5003316;28;20041;-70
2023/05/06 03:26:06;;;;;;;20.17;11.27;;;;;;;9.00;100.00;101351.13;4997204;28;20038;-70
2023/05/06 03:28:31;;;;;;;18.10;9.80;;;;;;;8.95;100.00;101347.19;5002361;28;20050;-70
2023/05/06 03:30:59;;;;;;;19.20;9.68;;;;;;;8.90;100.00;101345.94;5002744;28;20121;-71
2023/05/06 03:33:24;;;;;;;19.50;10.60;;;;;;;8.85;100.00;101345.50;5004128;28;20498;-70
2023/05/06 03:35:50;;;;;;;21.33;11.82;;;;;;;8.84;100.00;101349.88;5002297;28;20446;-70
2023/05/06 03:38:16;;;;;;;24.42;12.05;;;;;;;8.86;100.00;101353.13;5002810;28;20235;-70
2023/05/06 03:40:52;;;;;;;29.15;12.80;;;;;;;8.85;100.00;101348.09;5003433;28;20034;-70
2023/05/06 03:43:17;;;;;;;25.63;12.63;;;;;;;8.81;100.00;101344.13;4989893;28;20395;-70
2023/05/06 03:45:46;;;;;;;21.70;11.45;;;;;;;8.80;100.00;101352.81;5004730;28;20109;-70
2023/05/06 03:48:12;;;;;;;20.90;11.00;;;;;;;8.74;100.00;101346.44;4990960;28;20556;-70
2023/05/06 03:50:41;;;;;;;22.42;11.02;;;;;;;8.70;100.00;101345.03;5006884;28;20021;-70
2023/05/06 03:53:07;;;;;;;19.05;10.63;;;;;;;8.65;100.00;101350.63;4985076;28;20525;-70
2023/05/06 03:55:35;;;;;;;20.42;10.40;;;;;;;8.61;100.00;101357.00;5004093;28;21747;-70
2023/05/06 03:58:00;;;;;;;20.00;9.95;;;;;;;8.58;100.00;101346.91;5000903;28;20030;-70
2023/05/06 04:00:26;;;;;;;20.35;10.75;;;;;;;8.56;100.00;101349.63;4987930;28;20030;-70
2023/05/06 04:02:53;;;;;;;23.90;11.52;;;;;;;8.56;100.00;101343.63;4999731;28;20113;-70
2023/05/06 04:05:25;;;;;;;24.75;12.68;;;;;;;8.55;100.00;101345.41;5002575;28;20063;-70
2023/05/06 04:07:51;;;;;;;24.13;12.40;;;;;;;8.53;100.00;101339.56;5006566;28;20026;-70
2023/05/06 04:10:16;;;;;;;24.58;11.60;;;;;;;8.53;100.00;101349.06;4984574;28;20023;-70
2023/05/06 04:12:46;;;;;;;23.40;12.02;;;;;;;8.58;100.00;101354.66;5006575;28;20025;-70
2023/05/06 04:15:16;;;;;;;20.83;11.30;;;;;;;8.61;100.00;101348.41;5005061;28;20083;-70
2023/05/06 04:17:42;;;;;;;23.50;11.45;;;;;;;8.65;100.00;101355.78;4985511;28;20032;-70
2023/05/06 04:20:10;;;;;;;24.95;12.90;;;;;;;8.69;100.00;101359.75;5007542;28;20065;-70
2023/05/06 04:22:37;;;;;;;27.05;12.20;;;;;;;8.73;100.00;101358.53;4989538;28;20032;-70
2023/05/06 04:25:03;;;;;;;22.67;12.43;;;;;;;8.77;100.00;101361.69;4992772;28;20056;-70
2023/05/06 04:27:31;;;;;;;26.17;12.85;;;;;;;8.81;100.00;101364.81;5007684;28;20034;-70
2023/05/06 04:29:57;;;;;;;23.63;12.35;;;;;;;8.79;100.00;101364.94;4987730;28;20572;-70
2023/05/06 04:32:24;;;;;;;21.52;10.90;;;;;;;8.71;100.00;101375.94;5001837;28;20124;-70
2023/05/06 04:34:51;;;;;;;19.70;9.90;;;;;;;8.64;100.00;101374.81;5004073;28;20042;-70
2023/05/06 04:37:19;;;;;;;19.05;9.73;;;;;;;8.61;100.00;101369.94;4996813;28;20030;-70
2023/05/06 04:39:49;;;;;;;18.27;9.25;;;;;;;8.55;100.00;101379.00;5007385;28;20619;-70
2023/05/06 04:42:15;;;;;;;23.80;10.43;;;;;;;8.55;100.00;101373.84;5007674;28;20034;-70
2023/05/06 04:44:51;;;;;;;22.05;11.02;;;;;;;8.56;100.00;101375.47;5008307;28;20046;-70
2023/05/06 04:47:20;;;;;;;23.70;11.60;;;;;;;8.55;100.00;101384.19;5006422;28;20495;-70
2023/05/06 04:49:49;;;;;;;26.52;11.70;;;;;;;8.57;100.00;101384.06;5005154;28;20058;-70
2023/05/06 04:52:15;;;;;;;26.73;13.02;;;;;;;8.60;100.00;101385.56;5006902;28;20022;-70
2023/05/06 04:54:40;;;;;;;27.15;12.75;;;;;;;8.63;100.00;101380.13;4991455;28;20104;-70
2023/05/06 04:57:06;;;;;;;34.92;14.75;;;;;;;8.68;100.00;101381.41;5008222;28;20025;-70
2023/05/06 04:59:33;;;;;;;29.45;14.38;;;;;;;8.74;100.00;101392.97;4987818;28;20479;-69
2023/05/06 05:02:00;;;;;;;29.55;14.80;;;;;;;8.79;100.00;101393.41;5009557;28;20033;-70
2023/05/06 05:04:26;;;;;;;29.73;14.20;;;;;;;8.85;100.00;101392.88;4990108;28;20042;-70
2023/05/06 05:06:52;;;;;;;28.92;14.52;;;;;;;8.90;100.00;101398.47;5009550;28;20555;-70
2023/05/06 05:09:18;;;;;;;31.83;15.48;;;;;;;8.96;100.00;101399.72;5006795;28;20057;-70
2023/05/06 05:11:46;;;;;;;31.45;14.65;;;;;;;9.04;100.00;101404.25;4992092;28;20034;-70
2023/05/06 05:14:12;;;;;;;44.35;18.88;;;;;;;9.18;100.00;101403.06;5001741;28;20511;-70
2023/05/06 05:16:37;;;;;;;45.40;21.55;;;;;;;9.35;100.00;101403.25;5004188;28;20053;-70
2023/05/06 05:19:03;;;;;;;48.63;23.20;;;;;;;9.42;100.00;101405.28;5006720;28;20061;-70
2023/05/06 05:21:30;;;;;;;62.13;23.20;;;;;;;9.51;100.00;101399.31;4991498;28;20171;-70
2023/05/06 05:23:56;;;;;;;51.42;23.48;;;;;;;9.46;100.00;101404.09;5005691;28;20030;-70
2023/05/06 05:26:21;;;;;;;58.20;25.40;;;;;;;9.55;100.00;101409.28;4991976;28;20037;-70
2023/05/06 05:31:16;;;;;;;61.05;25.27;;;;;;;9.68;100.00;101411.63;4978794;28;20062;-69
2023/05/06 05:33:42;;;;;;;56.30;23.77;;;;;;;9.65;100.00;101411.88;4985750;28;20389;-69
2023/05/06 05:36:14;;;;;;;59.90;25.92;;;;;;;9.77;100.00;101420.31;4985245;28;20030;-69
2023/05/06 05:38:40;;;;;;;55.72;24.60;;;;;;;9.79;100.00;101415.81;4992064;28;20058;-73
2023/05/06 05:41:06;;;;;;;64.78;26.30;;;;;;;9.81;100.00;101419.09;4990020;28;20031;-69
2023/05/06 05:43:32;;;;;;;54.28;23.80;;;;;;;9.85;100.00;101423.06;4985791;28;20460;-70
2023/05/06 05:46:00;;;;;;;59.10;23.80;;;;;;;9.97;100.00;101420.34;4985129;28;20117;-69
2023/05/06 05:48:25;;;;;;;56.95;23.40;;;;;;;10.05;100.00;101421.28;4983820;28;20094;-69
2023/05/06 05:50:51;;;;;;;64.45;25.40;;;;;;;10.21;100.00;101435.44;4976443;28;20248;-71
2023/05/06 05:53:16;;;;;;;70.68;25.85;;;;;;;10.55;100.00;101424.66;4980164;28;20079;-71
2023/05/06 05:55:42;;;;;;;55.38;24.15;;;;;;;10.71;100.00;101428.28;4984680;28;20622;-69
2023/05/06 05:58:10;;;;;;;51.90;22.83;;;;;;;10.89;100.00;101415.41;4984863;28;20042;-69
2023/05/06 06:00:36;;;;;;;52.30;22.50;;;;;;;11.17;100.00;101422.38;4984749;28;20120;-69
2023/05/06 06:03:10;;;;;;;51.10;21.73;;;;;;;11.43;100.00;101415.53;4979727;28;20513;-69
2023/05/06 06:05:36;;;;;;;51.83;21.27;;;;;;;11.69;100.00;101417.41;4971752;28;20022;-69
2023/05/06 06:08:02;;;;;;;46.75;20.55;;;;;;;11.92;100.00;101415.19;4968822;28;20038;-69
2023/05/06 06:10:28;;;;;;;40.10;19.63;;;;;;;12.20;100.00;101412.50;4980934;28;20031;-69
2023/05/06 06:12:54;;;;;;;39.15;19.50;;;;;;;12.43;100.00;101411.03;4982948;28;20034;-69
2023/05/06 06:15:23;;;;;;;38.78;17.75;;;;;;;12.68;100.00;101411.16;4982079;28;20114;-69
2023/05/06 06:17:53;;;;;;;34.38;17.00;;;;;;;12.94;100.00;101405.94;4989529;28;20041;-69
2023/05/06 06:20:19;;;;;;;36.28;18.00;;;;;;;13.15;100.00;101399.50;4981027;28;20023;-69
2023/05/06 06:22:45;;;;;;;35.00;17.17;;;;;;;13.36;100.00;101402.50;4982961;28;20026;-70
2023/05/06 06:25:11;;;;;;;29.05;14.50;;;;;;;13.52;100.00;101403.50;4983639;28;20025;-69
2023/05/06 06:27:36;;;;;;;30.88;16.15;;;;;;;13.58;100.00;101402.84;4983103;28;20034;-69
2023/05/06 06:30:03;;;;;;;33.50;15.63;;;;;;;13.78;100.00;101404.16;4976981;28;20563;-69
2023/05/06 06:32:28;;;;;;;29.33;14.55;;;;;;;13.95;100.00;101405.00;4978681;28;20428;-69
2023/05/06 06:34:54;;;;;;;22.15;12.20;;;;;;;14.09;100.00;101406.16;4980059;28;20081;-69
2023/05/06 06:37:19;;;;;;;22.17;12.52;;;;;;;14.26;100.00;101406.94;4985066;28;20030;-69
2023/05/06 06:39:45;;;;;;;24.30;13.05;;;;;;;14.40;99.00;101401.03;4982452;28;20129;-69
2023/05/06 06:42:10;;;;;;;22.25;12.20;;;;;;;14.43;98.56;101404.28;4984259;28;20042;-69
2023/05/06 06:44:46;;;;;;;17.95;10.68;;;;;;;14.33;98.23;101405.28;4978921;28;20027;-69
2023/05/06 06:47:11;;;;;;;22.10;10.85;;;;;;;14.55;97.75;101400.34;4990918;28;20032;-69
2023/05/06 06:49:38;;;;;;;27.17;12.68;;;;;;;14.53;97.41;101399.72;4981210;28;20038;-69
2023/05/06 06:52:03;;;;;;;19.48;11.25;;;;;;;14.57;97.60;101407.06;4991784;28;20149;-69
2023/05/06 06:54:29;;;;;;;24.52;10.57;;;;;;;14.89;95.44;101405.31;4980804;28;20385;-69
2023/05/06 06:56:56;;;;;;;17.00;9.43;;;;;;;15.34;93.47;101401.16;4984815;28;20107;-69
2023/05/06 06:59:22;;;;;;;16.70;8.40;;;;;;;15.68;90.86;101409.63;4981721;28;20038;-69
2023/05/06 07:01:48;;;;;;;14.55;7.97;;;;;;;16.17;89.45;101405.81;4986801;28;20040;-69
2023/05/06 07:04:16;;;;;;;16.65;9.23;;;;;;;16.59;87.73;101405.19;4987580;28;20042;-69
2023/05/06 07:06:41;;;;;;;16.77;7.53;;;;;;;17.10;85.30;101407.91;4984506;28;20050;-69
2023/05/06 07:09:07;;;;;;;18.10;8.10;;;;;;;17.54;85.29;101398.25;4981747;28;20230;-69
2023/05/06 07:11:32;;;;;;;19.38;9.57;;;;;;;18.12;80.26;101392.06;4978196;28;20660;-69
2023/05/06 07:13:58;;;;;;;15.07;8.05;;;;;;;18.52;79.15;101395.78;4981311;28;20053;-70
2023/05/06 07:16:23;;;;;;;15.10;8.30;;;;;;;18.83;76.87;101402.41;4980442;28;20034;-69
2023/05/06 07:18:49;;;;;;;10.93;6.15;;;;;;;18.82;71.93;101401.59;4976797;28;20448;-69
2023/05/06 07:21:15;;;;;;;14.00;5.78;;;;;;;19.05;72.61;101397.84;4981493;28;20061;-69
2023/05/06 07:23:40;;;;;;;12.57;5.50;;;;;;;19.10;72.93;101400.69;4976377;28;20080;-69
2023/05/06 07:26:06;;;;;;;11.80;5.70;;;;;;;19.45;72.11;101400.56;4983629;28;20030;-69
2023/05/06 07:28:31;;;;;;;13.38;5.47;;;;;;;19.69;72.19;101396.53;4978662;28;20129;-69
2023/05/06 07:30:56;;;;;;;13.65;6.97;;;;;;;19.99;71.06;101404.84;4979790;28;20030;-69
2023/05/06 07:33:22;;;;;;;9.60;5.30;;;;;;;20.10;69.87;101406.06;4983110;28;20104;-69
2023/05/06 07:35:48;;;;;;;11.68;5.28;;;;;;;20.46;69.99;101410.03;4982752;28;20049;-69
2023/05/06 07:38:13;;;;;;;6.88;4.15;;;;;;;20.47;69.67;101409.00;4976866;28;20035;-69
2023/05/06 07:40:39;;;;;;;8.32;4.38;;;;;;;20.42;65.86;101412.28;4979072;28;20497;-69
2023/05/06 07:43:04;;;;;;;7.53;4.25;;;;;;;20.13;66.04;101410.09;4979442;28;20488;-69
2023/05/06 07:45:30;;;;;;;10.02;4.97;;;;;;;19.78;68.25;101397.97;4980165;28;20061;-69
2023/05/06 07:47:55;;;;;;;8.80;4.40;;;;;;;19.96;67.23;101396.56;4976972;28;20043;-69
2023/05/06 07:50:23;;;;;;;8.60;4.88;;;;;;;20.03;66.72;101407.88;4982266;28;20042;-69
2023/05/06 07:52:49;;;;;;;5.90;3.72;;;;;;;20.18;66.79;101407.66;4977789;28;20066;-69
2023/05/06 07:55:14;;;;;;;7.53;3.95;;;;;;;20.48;64.39;101410.66;4980011;28;20037;-69
2023/05/06 07:57:40;;;;;;;11.25;3.78;;;;;;;20.85;63.76;101405.69;4978521;28;20023;-69
2023/05/06 08:00:06;;;;;;;4.57;2.70;;;;;;;21.27;62.99;101403.44;4978827;28;20656;-69
2023/05/06 08:02:42;;;;;;;7.57;3.33;;;;;;;21.43;60.26;101399.47;4983610;28;20045;-69
2023/05/06 08:05:09;;;;;;;7.35;3.00;;;;;;;21.53;61.91;101404.28;4982882;28;20054;-69
2023/05/06 08:07:36;;;;;;;6.80;2.97;;;;;;;21.60;60.30;101414.81;4978227;28;20133;-69
2023/05/06 08:10:03;;;;;;;6.70;2.80;;;;;;;21.72;58.52;101406.00;4979530;28;20599;-69
2023/05/06 08:12:28;;;;;;;4.50;3.17;;;;;;;21.87;60.65;101415.41;4985225;28;20513;-69
2023/05/06 08:14:54;;;;;;;5.82;2.95;;;;;;;22.03;58.41;101412.22;4982374;28;20045;-69
2023/05/06 08:17:19;;;;;;;4.70;2.60;;;;;;;22.18;59.31;101417.16;4980688;28;20112;-69
2023/05/06 08:19:45;;;;;;;7.85;3.05;;;;;;;22.32;58.60;101415.19;4981207;28;20069;-69
2023/05/06 08:22:10;;;;;;;6.47;2.85;;;;;;;22.34;58.20;101415.81;4983906;28;20278;-69
2023/05/06 08:24:36;;;;;;;4.70;2.50;;;;;;;22.41;56.32;101410.44;4980566;28;20042;-69
2023/05/06 08:27:02;;;;;;;4.95;2.70;;;;;;;22.10;55.82;101412.16;4982473;28;20039;-69
2023/05/06 08:29:27;;;;;;;6.68;2.50;;;;;;;22.25;55.15;101410.00;4983836;28;20046;-69
2023/05/06 08:31:53;;;;;;;3.95;2.25;;;;;;;22.48;57.14;101413.81;4987194;28;20492;-69
2023/05/06 08:34:20;;;;;;;6.43;2.05;;;;;;;22.28;54.23;101414.03;4979589;28;20081;-69
2023/05/06 08:36:50;;;;;;;4.63;1.80;;;;;;;22.24;56.90;101407.53;4982520;28;20034;-69
2023/05/06 08:39:15;;;;;;;5.70;2.13;;;;;;;22.06;57.88;101411.00;4963850;28;20065;-69
2023/05/06 08:41:50;;;;;;;4.85;1.85;;;;;;;22.31;55.36;101409.13;4987070;28;20485;-69
2023/05/06 08:44:18;;;;;;;3.63;2.00;;;;;;;22.63;53.72;101411.63;4980484;28;20440;-69
2023/05/06 08:46:45;;;;;;;4.80;1.75;;;;;;;23.06;54.86;101407.25;4989899;28;20084;-69
2023/05/06 08:49:10;;;;;;;3.72;1.63;;;;;;;23.21;53.39;101401.56;4989316;28;20030;-69
2023/05/06 08:51:42;;;;;;;3.28;1.67;;;;;;;23.01;52.65;101407.09;4985681;28;20042;-69
2023/05/06 08:54:10;;;;;;;3.67;2.20;;;;;;;22.81;53.62;101402.03;4983331;28;20560;-69
2023/05/06 08:56:38;;;;;;;4.35;2.00;;;;;;;22.92;54.25;101398.66;4984821;28;20532;-69
2023/05/06 08:59:07;;;;;;;3.65;1.58;;;;;;;23.01;54.36;101396.50;4986683;28;20042;-69
2023/05/06 09:01:33;;;;;;;5.75;1.38;;;;;;;23.44;53.15;101395.50;4981401;28;20121;-69
2023/05/06 09:04:00;;;;;;;3.83;1.55;;;;;;;23.64;52.31;101393.34;4985933;28;20035;-69
2023/05/06 09:06:29;;;;;;;2.20;1.15;;;;;;;23.19;50.53;101399.13;4979679;28;20066;-69
2023/05/06 09:08:54;;;;;;;2.85;1.45;;;;;;;23.38;51.80;101401.72;4979392;28;20085;-69
2023/05/06 09:11:20;;;;;;;3.45;1.33;;;;;;;23.51;51.81;101393.56;4966848;28;20038;-69
2023/05/06 09:13:46;;;;;;;4.70;1.50;;;;;;;23.50;51.53;101390.09;4984169;28;20087;-69
2023/05/06 09:16:27;;;;;;;3.85;2.05;;;;;;;23.37;51.53;101397.44;4982395;28;20054;-69
2023/05/06 09:18:52;;;;;;;3.55;1.30;;;;;;;23.23;49.97;101391.56;4982083;28;20042;-69
2023/05/06 09:21:27;;;;;;;5.20;1.40;;;;;;;22.82;50.86;101393.09;4985655;28;20022;-69
2023/05/06 09:23:53;;;;;;;2.92;1.40;;;;;;;22.55;54.12;101390.78;4978329;28;20113;-69
2023/05/06 09:26:21;;;;;;;4.07;1.65;;;;;;;23.02;53.80;101383.06;4962874;28;20056;-69
2023/05/06 09:28:47;;;;;;;4.00;1.88;;;;;;;23.34;51.87;101380.19;4979384;28;20061;-69
2023/05/06 09:31:16;;;;;;;3.63;1.33;;;;;;;23.49;54.45;101374.47;4980580;28;20038;-69
2023/05/06 09:33:41;;;;;;;3.22;1.50;;;;;;;23.61;49.77;101375.28;4982435;28;20129;-69
2023/05/06 09:36:12;;;;;;;5.88;1.75;;;;;;;23.38;51.07;101370.78;4984030;28;20032;-69
2023/05/06 09:38:40;;;;;;;4.53;1.42;;;;;;;23.50;53.33;101371.56;4982467;28;20125;-69
2023/05/06 09:41:06;;;;;;;2.58;1.30;;;;;;;23.42;51.03;101369.28;4982609;28;20026;-69
2023/05/06 09:43:33;;;;;;;4.85;1.55;;;;;;;23.45;51.69;101368.81;4980399;28;20134;-69
2023/05/06 09:46:00;;;;;;;2.28;1.23;;;;;;;23.35;52.24;101365.13;4983883;28;20065;-69
2023/05/06 09:48:29;;;;;;;3.67;1.58;;;;;;;23.25;52.04;101374.41;4983058;28;20100;-69
2023/05/06 09:50:55;;;;;;;5.68;1.80;;;;;;;23.30;51.86;101374.56;4981610;28;20053;-69
2023/05/06 09:53:22;;;;;;;2.22;1.33;;;;;;;22.94;50.86;101364.84;4978706;28;20039;-69
2023/05/06 09:55:49;;;;;;;3.00;1.52;;;;;;;22.64;52.28;101368.31;4988272;28;20138;-69
2023/05/06 09:58:16;;;;;;;3.47;1.20;;;;;;;22.68;53.09;101363.41;4982588;28;20935;-69
2023/05/06 10:00:44;;;;;;;3.75;1.42;;;;;;;22.81;52.86;101359.75;4978885;28;20039;-69
2023/05/06 10:03:11;;;;;;;1.40;0.80;;;;;;;22.86;53.58;101355.41;4979185;28;20046;-69
2023/05/06 10:05:43;;;;;;;4.50;1.60;;;;;;;23.03;51.62;101355.59;4980520;28;20518;-69
2023/05/06 10:08:09;;;;;;;3.95;1.42;;;;;;;22.89;52.12;101356.81;4980147;28;20595;-69
2023/05/06 10:10:36;;;;;;;3.28;1.55;;;;;;;22.84;52.50;101356.66;4977678;28;20443;-69
2023/05/06 10:13:05;;;;;;;3.38;1.10;;;;;;;23.07;52.27;101355.97;4981719;28;20038;-69
2023/05/06 10:15:34;;;;;;;4.97;1.40;;;;;;;23.30;49.08;101352.56;4983667;28;20451;-69
2023/05/06 10:18:00;;;;;;;2.45;1.10;;;;;;;23.28;51.47;101355.47;4966081;28;20448;-69
2023/05/06 10:20:27;;;;;;;2.42;1.13;;;;;;;23.55;51.42;101352.38;4981621;28;20030;-69
2023/05/06 10:23:02;;;;;;;6.32;1.48;;;;;;;23.84;48.86;101350.66;4978290;28;20026;-69
2023/05/06 10:25:44;;;;;;;3.08;1.13;;;;;;;23.52;48.67;101348.34;4980207;28;20648;-69
2023/05/06 10:28:11;;;;;;;4.95;1.10;;;;;;;23.22;51.38;101351.06;4981235;28;20624;-69
2023/05/06 10:30:39;;;;;;;4.43;1.15;;;;;;;23.33;51.01;101350.28;4982805;28;20038;-69
2023/05/06 10:33:10;;;;;;;2.78;1.23;;;;;;;23.35;50.78;101346.59;4979195;28;20041;-68
2023/05/06 10:35:55;;;;;;;6.10;1.20;;;;;;;23.30;52.13;101344.63;4981657;28;20038;-69
2023/05/06 10:38:33;;;;;;;3.22;0.90;;;;;;;23.08;51.31;101350.44;4981923;28;20076;-69
2023/05/06 10:41:00;;;;;;;3.60;1.00;;;;;;;22.95;52.27;101347.97;4982126;28;20033;-69
2023/05/06 10:43:29;;;;;;;5.10;1.45;;;;;;;22.63;52.69;101342.09;4981005;28;20584;-68
2023/05/06 10:46:07;;;;;;;3.58;0.90;;;;;;;22.51;54.11;101337.56;4982927;28;20129;-69
2023/05/06 10:48:35;;;;;;;4.60;0.82;;;;;;;22.63;51.72;101331.53;4978853;28;20985;-69
2023/05/06 10:51:23;;;;;;;2.63;0.93;;;;;;;22.62;51.21;101328.09;4977753;28;20053;-69
2023/05/06 10:53:55;;;;;;;1.17;0.70;;;;;;;22.46;52.64;101336.63;4979924;28;20409;-68
2023/05/06 10:56:20;;;;;;;4.35;1.20;;;;;;;22.64;52.53;101328.69;4974911;28;20042;-69
2023/05/06 10:58:49;;;;;;;2.20;1.00;;;;;;;22.42;55.14;101330.19;4975923;28;20109;-69
2023/05/06 11:01:15;;;;;;;3.45;1.10;;;;;;;22.20;54.71;101330.59;4978458;28;20034;-69
2023/05/06 11:03:43;;;;;;;5.80;1.20;;;;;;;22.23;52.37;101329.34;4976637;28;20077;-69
2023/05/06 11:06:09;;;;;;;4.30;1.00;;;;;;;21.58;54.39;101327.94;4979826;28;20065;-68
2023/05/06 11:08:35;;;;;;;3.60;0.82;;;;;;;21.72;56.33;101329.47;4979313;28;20475;-68
2023/05/06 11:11:03;;;;;;;5.50;1.17;;;;;;;21.92;54.27;101323.97;4982271;28;20038;-68
2023/05/06 11:13:34;;;;;;;3.15;0.95;;;;;;;22.09;55.97;101315.47;4983041;28;20034;-68
2023/05/06 11:16:00;;;;;;;1.95;0.75;;;;;;;22.19;56.40;101320.25;4982889;28;20038;-68